sensor_id;sensor_type;location;lat;lon;timestamp;P1;durP1;ratioP1;P2;durP2;ratioP2
50689;SDS011;54375;48.298;11.238;2023-04-12T00:09:32;6.50;;;3.10;;
50689;SDS011;54375;48.298;11.238;2023-04-12T00:24:35;6.85;;;3.33;;
50689;SDS011;54375;48.298;11.238;2023-04-12T00:39:39;5.97;;;3.03;;
50689;SDS011;54375;48.298;11.238;2023-04-12T00:54:42;8.15;;;3.28;;
50689;SDS011;54375;48.298;11.238;2023-04-12T01:09:48;9.18;;;3.80;;
50689;SDS011;54375;48.298;11.238;2023-04-12T01:25:02;5.47;;;2.70;;
50689;SDS011;54375;48.298;11.238;2023-04-12T01:40:13;7.65;;;3.03;;
50689;SDS011;54375;48.298;11.238;2023-04-12T01:55:16;7.07;;;2.80;;
50689;SDS011;54375;48.298;11.238;2023-04-12T02:10:27;6.70;;;2.72;;
50689;SDS011;54375;48.298;11.238;2023-04-12T02:25:32;6.88;;;2.60;;
50689;SDS011;54375;48.298;11.238;2023-04-12T02:40:38;6.63;;;2.88;;
50689;SDS011;54375;48.298;11.238;2023-04-12T02:55:41;9.70;;;3.08;;
50689;SDS011;54375;48.298;11.238;2023-04-12T03:10:43;5.78;;;2.63;;
50689;SDS011;54375;48.298;11.238;2023-04-12T03:25:46;7.30;;;2.45;;
50689;SDS011;54375;48.298;11.238;2023-04-12T03:40:48;5.40;;;2.50;;
50689;SDS011;54375;48.298;11.238;2023-04-12T03:55:50;4.63;;;2.33;;
50689;SDS011;54375;48.298;11.238;2023-04-12T04:10:53;6.65;;;2.60;;
50689;SDS011;54375;48.298;11.238;2023-04-12T04:25:55;7.70;;;2.58;;
50689;SDS011;54375;48.298;11.238;2023-04-12T04:40:57;7.07;;;2.65;;
50689;SDS011;54375;48.298;11.238;2023-04-12T04:56:01;5.03;;;2.35;;
50689;SDS011;54375;48.298;11.238;2023-04-12T05:11:03;6.03;;;2.63;;
50689;SDS011;54375;48.298;11.238;2023-04-12T05:26:06;5.85;;;2.10;;
50689;SDS011;54375;48.298;11.238;2023-04-12T05:41:08;5.03;;;2.47;;
50689;SDS011;54375;48.298;11.238;2023-04-12T05:56:10;5.35;;;1.90;;
50689;SDS011;54375;48.298;11.238;2023-04-12T06:11:13;5.95;;;2.10;;
50689;SDS011;54375;48.298;11.238;2023-04-12T06:26:15;5.32;;;2.10;;
50689;SDS011;54375;48.298;11.238;2023-04-12T06:41:17;5.07;;;2.10;;
50689;SDS011;54375;48.298;11.238;2023-04-12T06:56:19;4.78;;;2.40;;
50689;SDS011;54375;48.298;11.238;2023-04-12T07:11:22;4.95;;;2.42;;
50689;SDS011;54375;48.298;11.238;2023-04-12T07:26:24;4.68;;;2.33;;
50689;SDS011;54375;48.298;11.238;2023-04-12T07:41:26;6.63;;;2.72;;
50689;SDS011;54375;48.298;11.238;2023-04-12T07:56:28;6.32;;;2.83;;
50689;SDS011;54375;48.298;11.238;2023-04-12T08:11:31;5.38;;;2.53;;
50689;SDS011;54375;48.298;11.238;2023-04-12T08:26:33;6.78;;;2.90;;
50689;SDS011;54375;48.298;11.238;2023-04-12T08:41:35;11.10;;;5.40;;
50689;SDS011;54375;48.298;11.238;2023-04-12T08:56:41;16.42;;;7.15;;
50689;SDS011;54375;48.298;11.238;2023-04-12T09:11:44;6.35;;;3.40;;
50689;SDS011;54375;48.298;11.238;2023-04-12T09:26:46;5.68;;;2.90;;
50689;SDS011;54375;48.298;11.238;2023-04-12T09:41:49;5.85;;;2.80;;
50689;SDS011;54375;48.298;11.238;2023-04-12T09:57:06;5.65;;;2.22;;
50689;SDS011;54375;48.298;11.238;2023-04-12T10:12:08;4.75;;;1.85;;
50689;SDS011;54375;48.298;11.238;2023-04-12T10:27:11;7.45;;;3.33;;
50689;SDS011;54375;48.298;11.238;2023-04-12T10:42:15;7.30;;;3.35;;
50689;SDS011;54375;48.298;11.238;2023-04-12T11:12:48;3.92;;;1.50;;
50689;SDS011;54375;48.298;11.238;2023-04-12T11:27:51;2.42;;;1.30;;
50689;SDS011;54375;48.298;11.238;2023-04-12T11:42:54;3.13;;;1.85;;
50689;SDS011;54375;48.298;11.238;2023-04-12T11:57:58;2.72;;;1.70;;
50689;SDS011;54375;48.298;11.238;2023-04-12T12:13:00;2.75;;;1.73;;
50689;SDS011;54375;48.298;11.238;2023-04-12T12:28:03;2.50;;;1.38;;
50689;SDS011;54375;48.298;11.238;2023-04-12T12:43:06;2.00;;;1.20;;
50689;SDS011;54375;48.298;11.238;2023-04-12T12:58:17;2.83;;;1.55;;
50689;SDS011;54375;48.298;11.238;2023-04-12T13:13:20;2.25;;;1.40;;
50689;SDS011;54375;48.298;11.238;2023-04-12T13:28:22;2.33;;;1.40;;
50689;SDS011;54375;48.298;11.238;2023-04-12T13:43:24;2.47;;;1.20;;
50689;SDS011;54375;48.298;11.238;2023-04-12T13:58:27;2.78;;;1.55;;
50689;SDS011;54375;48.298;11.238;2023-04-12T14:13:29;4.40;;;1.00;;
50689;SDS011;54375;48.298;11.238;2023-04-12T14:28:32;4.55;;;0.98;;
50689;SDS011;54375;48.298;11.238;2023-04-12T14:43:35;0.88;;;0.45;;
50689;SDS011;54375;48.298;11.238;2023-04-12T14:58:37;2.38;;;0.70;;
50689;SDS011;54375;48.298;11.238;2023-04-12T15:13:39;0.82;;;0.65;;
50689;SDS011;54375;48.298;11.238;2023-04-12T15:28:42;1.45;;;0.80;;
50689;SDS011;54375;48.298;11.238;2023-04-12T15:43:45;3.55;;;0.90;;
50689;SDS011;54375;48.298;11.238;2023-04-12T15:58:47;2.92;;;0.90;;
50689;SDS011;54375;48.298;11.238;2023-04-12T16:13:49;2.20;;;1.00;;
50689;SDS011;54375;48.298;11.238;2023-04-12T16:28:52;2.53;;;1.30;;
50689;SDS011;54375;48.298;11.238;2023-04-12T16:43:54;1.77;;;0.80;;
50689;SDS011;54375;48.298;11.238;2023-04-12T16:58:59;1.17;;;0.77;;
50689;SDS011;54375;48.298;11.238;2023-04-12T17:14:02;2.88;;;1.00;;
50689;SDS011;54375;48.298;11.238;2023-04-12T17:29:04;1.15;;;0.50;;
50689;SDS011;54375;48.298;11.238;2023-04-12T17:44:07;1.20;;;0.60;;
50689;SDS011;54375;48.298;11.238;2023-04-12T17:59:10;2.88;;;0.60;;
50689;SDS011;54375;48.298;11.238;2023-04-12T18:14:12;0.63;;;0.52;;
50689;SDS011;54375;48.298;11.238;2023-04-12T18:29:14;1.15;;;0.82;;
50689;SDS011;54375;48.298;11.238;2023-04-12T18:44:16;1.02;;;0.70;;
50689;SDS011;54375;48.298;11.238;2023-04-12T18:59:18;1.15;;;0.70;;
50689;SDS011;54375;48.298;11.238;2023-04-12T19:14:21;1.50;;;0.88;;
50689;SDS011;54375;48.298;11.238;2023-04-12T19:29:23;3.03;;;1.30;;
50689;SDS011;54375;48.298;11.238;2023-04-12T19:44:26;1.67;;;0.90;;
50689;SDS011;54375;48.298;11.238;2023-04-12T19:59:28;1.95;;;0.90;;
50689;SDS011;54375;48.298;11.238;2023-04-12T20:14:30;1.45;;;0.82;;
50689;SDS011;54375;48.298;11.238;2023-04-12T20:29:33;2.63;;;0.98;;
50689;SDS011;54375;48.298;11.238;2023-04-12T20:44:37;1.83;;;1.10;;
50689;SDS011;54375;48.298;11.238;2023-04-12T20:59:39;1.65;;;1.00;;
50689;SDS011;54375;48.298;11.238;2023-04-12T21:14:41;1.20;;;0.80;;
50689;SDS011;54375;48.298;11.238;2023-04-12T21:29:44;1.23;;;0.93;;
50689;SDS011;54375;48.298;11.238;2023-04-12T21:44:46;2.88;;;1.02;;
50689;SDS011;54375;48.298;11.238;2023-04-12T21:59:48;2.95;;;1.00;;
50689;SDS011;54375;48.298;11.238;2023-04-12T22:14:51;1.98;;;1.00;;
50689;SDS011;54375;48.298;11.238;2023-04-12T22:29:53;1.92;;;1.00;;
50689;SDS011;54375;48.298;11.238;2023-04-12T22:44:55;1.40;;;0.90;;
50689;SDS011;54375;48.298;11.238;2023-04-12T22:59:58;4.25;;;0.90;;
50689;SDS011;54375;48.298;11.238;2023-04-12T23:15:00;3.47;;;1.13;;
50689;SDS011;54375;48.298;11.238;2023-04-12T23:30:02;1.85;;;0.93;;
50689;SDS011;54375;48.298;11.238;2023-04-12T23:45:06;2.40;;;0.90;;
